sensor_id;sensor_type;location;lat;lon;timestamp;temperature;humidity
51996;DHT22;38010;53.264;6.592;2023-03-31T00:01:36;15.50;99.90
51996;DHT22;38010;53.264;6.592;2023-03-31T00:04:07;15.50;99.90
51996;DHT22;38010;53.264;6.592;2023-03-31T00:06:38;15.50;99.90
51996;DHT22;38010;53.264;6.592;2023-03-31T00:09:14;15.50;99.90
51996;DHT22;38010;53.264;6.592;2023-03-31T00:11:44;15.50;99.90
51996;DHT22;38010;53.264;6.592;2023-03-31T00:14:10;15.40;99.90
51996;DHT22;38010;53.264;6.592;2023-03-31T00:16:37;15.40;99.90
51996;DHT22;38010;53.264;6.592;2023-03-31T00:19:04;15.40;99.90
51996;DHT22;38010;53.264;6.592;2023-03-31T00:21:30;15.40;99.90
51996;DHT22;38010;53.264;6.592;2023-03-31T00:24:01;15.50;99.90
51996;DHT22;38010;53.264;6.592;2023-03-31T00:26:28;15.40;99.90
51996;DHT22;38010;53.264;6.592;2023-03-31T00:28:54;15.40;99.90
51996;DHT22;38010;53.264;6.592;2023-03-31T00:31:20;15.40;99.90
51996;DHT22;38010;53.264;6.592;2023-03-31T00:33:47;15.40;99.90
51996;DHT22;38010;53.264;6.592;2023-03-31T00:36:13;15.40;99.90
51996;DHT22;38010;53.264;6.592;2023-03-31T00:38:42;15.40;99.90
51996;DHT22;38010;53.264;6.592;2023-03-31T00:41:10;15.40;99.90
51996;DHT22;38010;53.264;6.592;2023-03-31T00:43:37;15.40;99.90
51996;DHT22;38010;53.264;6.592;2023-03-31T00:46:11;15.40;99.90
51996;DHT22;38010;53.264;6.592;2023-03-31T00:48:50;15.40;99.90
51996;DHT22;38010;53.264;6.592;2023-03-31T00:51:19;15.50;99.90
51996;DHT22;38010;53.264;6.592;2023-03-31T00:53:51;15.40;99.90
51996;DHT22;38010;53.264;6.592;2023-03-31T00:56:23;15.40;99.90
51996;DHT22;38010;53.264;6.592;2023-03-31T00:58:49;15.40;99.90
51996;DHT22;38010;53.264;6.592;2023-03-31T01:01:20;15.30;99.90
51996;DHT22;38010;53.264;6.592;2023-03-31T01:03:49;15.30;99.90
51996;DHT22;38010;53.264;6.592;2023-03-31T01:06:15;15.30;99.90
51996;DHT22;38010;53.264;6.592;2023-03-31T01:08:45;15.40;99.90
51996;DHT22;38010;53.264;6.592;2023-03-31T01:11:14;15.40;99.90
51996;DHT22;38010;53.264;6.592;2023-03-31T01:13:41;15.30;99.90
51996;DHT22;38010;53.264;6.592;2023-03-31T01:16:08;15.30;99.90
51996;DHT22;38010;53.264;6.592;2023-03-31T01:18:34;15.30;99.90
51996;DHT22;38010;53.264;6.592;2023-03-31T01:43:47;15.30;99.90
51996;DHT22;38010;53.264;6.592;2023-03-31T01:46:35;15.30;99.90
51996;DHT22;38010;53.264;6.592;2023-03-31T01:49:19;15.30;99.90
51996;DHT22;38010;53.264;6.592;2023-03-31T01:54:26;15.20;99.90
51996;DHT22;38010;53.264;6.592;2023-03-31T01:57:04;15.30;99.90
51996;DHT22;38010;53.264;6.592;2023-03-31T01:59:37;15.20;99.90
51996;DHT22;38010;53.264;6.592;2023-03-31T02:02:20;15.20;99.90
51996;DHT22;38010;53.264;6.592;2023-03-31T02:05:05;15.20;99.90
51996;DHT22;38010;53.264;6.592;2023-03-31T02:07:58;15.20;99.90
51996;DHT22;38010;53.264;6.592;2023-03-31T02:10:29;15.20;99.90
51996;DHT22;38010;53.264;6.592;2023-03-31T02:12:57;15.20;99.90
51996;DHT22;38010;53.264;6.592;2023-03-31T02:15:28;15.20;99.90
51996;DHT22;38010;53.264;6.592;2023-03-31T02:17:57;15.20;99.90
51996;DHT22;38010;53.264;6.592;2023-03-31T02:20:27;15.20;99.90
51996;DHT22;38010;53.264;6.592;2023-03-31T02:22:55;15.20;99.90
51996;DHT22;38010;53.264;6.592;2023-03-31T02:25:25;15.20;99.90
51996;DHT22;38010;53.264;6.592;2023-03-31T02:27:59;15.20;99.90
51996;DHT22;38010;53.264;6.592;2023-03-31T02:30:33;15.20;99.90
51996;DHT22;38010;53.264;6.592;2023-03-31T02:33:00;15.20;99.90
51996;DHT22;38010;53.264;6.592;2023-03-31T02:35:28;15.20;99.90
51996;DHT22;38010;53.264;6.592;2023-03-31T02:37:55;15.20;99.90
51996;DHT22;38010;53.264;6.592;2023-03-31T02:42:52;15.20;99.90
51996;DHT22;38010;53.264;6.592;2023-03-31T02:48:04;15.20;99.90
51996;DHT22;38010;53.264;6.592;2023-03-31T02:50:37;15.20;99.90
51996;DHT22;38010;53.264;6.592;2023-03-31T02:53:19;15.20;99.90
51996;DHT22;38010;53.264;6.592;2023-03-31T03:12:52;15.10;99.90
51996;DHT22;38010;53.264;6.592;2023-03-31T03:15:25;15.10;99.90
51996;DHT22;38010;53.264;6.592;2023-03-31T03:17:54;15.10;99.90
51996;DHT22;38010;53.264;6.592;2023-03-31T03:20:22;15.10;99.90
51996;DHT22;38010;53.264;6.592;2023-03-31T03:22:48;15.10;99.90
51996;DHT22;38010;53.264;6.592;2023-03-31T03:25:14;15.10;99.90
51996;DHT22;38010;53.264;6.592;2023-03-31T03:27:45;15.10;99.90
51996;DHT22;38010;53.264;6.592;2023-03-31T03:30:12;15.10;99.90
51996;DHT22;38010;53.264;6.592;2023-03-31T03:32:38;15.10;99.90
51996;DHT22;38010;53.264;6.592;2023-03-31T03:35:06;15.10;99.90
51996;DHT22;38010;53.264;6.592;2023-03-31T03:37:32;15.10;99.90
51996;DHT22;38010;53.264;6.592;2023-03-31T03:39:58;15.10;99.90
51996;DHT22;38010;53.264;6.592;2023-03-31T03:42:23;15.10;99.90
51996;DHT22;38010;53.264;6.592;2023-03-31T03:44:49;15.10;99.90
51996;DHT22;38010;53.264;6.592;2023-03-31T03:47:15;15.10;99.90
51996;DHT22;38010;53.264;6.592;2023-03-31T03:49:41;15.10;99.90
51996;DHT22;38010;53.264;6.592;2023-03-31T03:52:07;15.10;99.90
51996;DHT22;38010;53.264;6.592;2023-03-31T03:54:32;15.10;99.90
51996;DHT22;38010;53.264;6.592;2023-03-31T03:56:58;15.00;99.90
51996;DHT22;38010;53.264;6.592;2023-03-31T03:59:24;15.00;99.90
51996;DHT22;38010;53.264;6.592;2023-03-31T04:01:50;15.00;99.90
51996;DHT22;38010;53.264;6.592;2023-03-31T04:04:17;15.00;99.90
51996;DHT22;38010;53.264;6.592;2023-03-31T04:06:43;15.10;99.90
51996;DHT22;38010;53.264;6.592;2023-03-31T04:09:08;15.00;99.90
51996;DHT22;38010;53.264;6.592;2023-03-31T04:11:34;15.00;99.90
51996;DHT22;38010;53.264;6.592;2023-03-31T04:14:00;15.00;99.90
51996;DHT22;38010;53.264;6.592;2023-03-31T04:16:25;15.00;99.90
51996;DHT22;38010;53.264;6.592;2023-03-31T04:18:52;15.20;99.90
51996;DHT22;38010;53.264;6.592;2023-03-31T04:21:22;15.10;99.90
51996;DHT22;38010;53.264;6.592;2023-03-31T04:23:52;15.00;99.90
51996;DHT22;38010;53.264;6.592;2023-03-31T04:26:27;15.00;99.90
51996;DHT22;38010;53.264;6.592;2023-03-31T04:29:05;15.00;99.90
51996;DHT22;38010;53.264;6.592;2023-03-31T04:31:32;15.00;99.90
51996;DHT22;38010;53.264;6.592;2023-03-31T04:33:58;15.00;99.90
51996;DHT22;38010;53.264;6.592;2023-03-31T04:36:27;15.00;99.90
51996;DHT22;38010;53.264;6.592;2023-03-31T04:38:53;15.00;99.90
51996;DHT22;38010;53.264;6.592;2023-03-31T04:41:23;15.00;99.90
51996;DHT22;38010;53.264;6.592;2023-03-31T04:43:49;15.00;99.90
51996;DHT22;38010;53.264;6.592;2023-03-31T04:46:15;14.90;99.90
51996;DHT22;38010;53.264;6.592;2023-03-31T04:48:41;15.00;99.90
51996;DHT22;38010;53.264;6.592;2023-03-31T04:51:07;15.00;99.90
51996;DHT22;38010;53.264;6.592;2023-03-31T04:53:34;15.00;99.90
51996;DHT22;38010;53.264;6.592;2023-03-31T04:56:00;14.90;99.90
51996;DHT22;38010;53.264;6.592;2023-03-31T04:58:26;14.90;99.90
51996;DHT22;38010;53.264;6.592;2023-03-31T05:00:52;15.00;99.90
51996;DHT22;38010;53.264;6.592;2023-03-31T05:03:18;15.00;99.90
51996;DHT22;38010;53.264;6.592;2023-03-31T05:05:44;15.00;99.90
51996;DHT22;38010;53.264;6.592;2023-03-31T05:08:10;14.90;99.90
51996;DHT22;38010;53.264;6.592;2023-03-31T05:10:36;14.90;99.90
51996;DHT22;38010;53.264;6.592;2023-03-31T05:13:01;14.90;99.90
51996;DHT22;38010;53.264;6.592;2023-03-31T05:15:27;14.90;99.90
51996;DHT22;38010;53.264;6.592;2023-03-31T05:17:53;15.00;99.90
51996;DHT22;38010;53.264;6.592;2023-03-31T05:20:19;14.90;99.90
51996;DHT22;38010;53.264;6.592;2023-03-31T05:22:45;14.90;99.90
51996;DHT22;38010;53.264;6.592;2023-03-31T05:25:13;14.90;99.90
51996;DHT22;38010;53.264;6.592;2023-03-31T05:27:44;14.90;99.90
51996;DHT22;38010;53.264;6.592;2023-03-31T05:30:12;14.90;99.90
51996;DHT22;38010;53.264;6.592;2023-03-31T05:32:38;14.90;99.90
51996;DHT22;38010;53.264;6.592;2023-03-31T05:35:04;14.90;99.90
51996;DHT22;38010;53.264;6.592;2023-03-31T05:37:30;14.90;99.90
51996;DHT22;38010;53.264;6.592;2023-03-31T05:39:56;14.90;99.90
51996;DHT22;38010;53.264;6.592;2023-03-31T05:42:22;14.90;99.90
51996;DHT22;38010;53.264;6.592;2023-03-31T05:44:48;14.90;99.90
51996;DHT22;38010;53.264;6.592;2023-03-31T05:47:14;14.90;99.90
51996;DHT22;38010;53.264;6.592;2023-03-31T05:49:40;14.90;99.90
51996;DHT22;38010;53.264;6.592;2023-03-31T05:52:07;14.90;99.90
51996;DHT22;38010;53.264;6.592;2023-03-31T05:54:33;14.90;99.90
51996;DHT22;38010;53.264;6.592;2023-03-31T05:56:59;14.90;99.90
51996;DHT22;38010;53.264;6.592;2023-03-31T05:59:24;14.90;99.90
51996;DHT22;38010;53.264;6.592;2023-03-31T06:01:50;14.90;99.90
51996;DHT22;38010;53.264;6.592;2023-03-31T06:04:16;14.90;99.90
51996;DHT22;38010;53.264;6.592;2023-03-31T06:06:42;14.90;99.90
51996;DHT22;38010;53.264;6.592;2023-03-31T06:09:09;14.90;99.90
51996;DHT22;38010;53.264;6.592;2023-03-31T06:11:37;14.90;99.90
51996;DHT22;38010;53.264;6.592;2023-03-31T06:14:03;14.90;99.90
51996;DHT22;38010;53.264;6.592;2023-03-31T06:16:29;14.90;99.90
51996;DHT22;38010;53.264;6.592;2023-03-31T06:18:54;14.90;99.90
51996;DHT22;38010;53.264;6.592;2023-03-31T06:21:20;14.90;99.90
51996;DHT22;38010;53.264;6.592;2023-03-31T06:23:46;14.90;99.90
51996;DHT22;38010;53.264;6.592;2023-03-31T06:26:17;14.90;99.90
51996;DHT22;38010;53.264;6.592;2023-03-31T06:28:44;14.90;99.90
51996;DHT22;38010;53.264;6.592;2023-03-31T06:31:13;14.90;99.90
51996;DHT22;38010;53.264;6.592;2023-03-31T06:33:41;14.90;99.90
51996;DHT22;38010;53.264;6.592;2023-03-31T06:36:07;14.90;99.90
51996;DHT22;38010;53.264;6.592;2023-03-31T06:38:34;14.90;99.90
51996;DHT22;38010;53.264;6.592;2023-03-31T06:41:01;14.90;99.90
51996;DHT22;38010;53.264;6.592;2023-03-31T06:43:27;14.90;99.90
51996;DHT22;38010;53.264;6.592;2023-03-31T06:45:53;14.90;99.90
51996;DHT22;38010;53.264;6.592;2023-03-31T06:48:20;14.90;99.90
51996;DHT22;38010;53.264;6.592;2023-03-31T06:50:46;14.90;99.90
51996;DHT22;38010;53.264;6.592;2023-03-31T06:53:12;14.90;99.90
51996;DHT22;38010;53.264;6.592;2023-03-31T06:55:38;14.90;99.90
51996;DHT22;38010;53.264;6.592;2023-03-31T06:58:04;14.90;99.90
51996;DHT22;38010;53.264;6.592;2023-03-31T07:00:31;14.90;99.90
51996;DHT22;38010;53.264;6.592;2023-03-31T07:02:58;14.90;99.90
51996;DHT22;38010;53.264;6.592;2023-03-31T07:05:24;14.90;99.90
51996;DHT22;38010;53.264;6.592;2023-03-31T07:07:56;14.90;99.90
51996;DHT22;38010;53.264;6.592;2023-03-31T07:10:23;14.90;99.90
51996;DHT22;38010;53.264;6.592;2023-03-31T07:12:49;14.80;99.90
51996;DHT22;38010;53.264;6.592;2023-03-31T07:15:15;14.90;99.90
51996;DHT22;38010;53.264;6.592;2023-03-31T07:17:41;14.90;99.90
51996;DHT22;38010;53.264;6.592;2023-03-31T07:20:14;14.90;99.90
51996;DHT22;38010;53.264;6.592;2023-03-31T07:22:41;14.80;99.90
51996;DHT22;38010;53.264;6.592;2023-03-31T07:25:08;14.80;99.90
51996;DHT22;38010;53.264;6.592;2023-03-31T07:27:34;14.90;99.90
51996;DHT22;38010;53.264;6.592;2023-03-31T07:30:00;14.80;99.90
51996;DHT22;38010;53.264;6.592;2023-03-31T07:32:26;14.90;99.90
51996;DHT22;38010;53.264;6.592;2023-03-31T07:34:53;14.80;99.90
51996;DHT22;38010;53.264;6.592;2023-03-31T07:37:20;14.90;99.90
51996;DHT22;38010;53.264;6.592;2023-03-31T07:39:46;14.80;99.90
51996;DHT22;38010;53.264;6.592;2023-03-31T07:42:11;14.90;99.90
51996;DHT22;38010;53.264;6.592;2023-03-31T07:44:37;14.90;99.90
51996;DHT22;38010;53.264;6.592;2023-03-31T07:47:03;14.80;99.90
51996;DHT22;38010;53.264;6.592;2023-03-31T07:49:35;14.90;99.90
51996;DHT22;38010;53.264;6.592;2023-03-31T07:52:01;14.90;99.90
51996;DHT22;38010;53.264;6.592;2023-03-31T07:54:27;14.90;99.90
51996;DHT22;38010;53.264;6.592;2023-03-31T07:56:53;14.80;99.90
51996;DHT22;38010;53.264;6.592;2023-03-31T07:59:19;14.90;99.90
51996;DHT22;38010;53.264;6.592;2023-03-31T08:01:45;14.90;99.90
51996;DHT22;38010;53.264;6.592;2023-03-31T08:04:11;14.90;99.90
51996;DHT22;38010;53.264;6.592;2023-03-31T08:06:37;14.80;99.90
51996;DHT22;38010;53.264;6.592;2023-03-31T08:09:04;14.90;99.90
51996;DHT22;38010;53.264;6.592;2023-03-31T08:11:31;14.90;99.90
51996;DHT22;38010;53.264;6.592;2023-03-31T08:13:57;14.90;99.90
51996;DHT22;38010;53.264;6.592;2023-03-31T08:16:23;14.80;99.90
51996;DHT22;38010;53.264;6.592;2023-03-31T08:18:49;14.80;99.90
51996;DHT22;38010;53.264;6.592;2023-03-31T08:21:14;14.80;99.90
51996;DHT22;38010;53.264;6.592;2023-03-31T08:23:40;14.80;99.90
51996;DHT22;38010;53.264;6.592;2023-03-31T08:26:11;14.90;99.90
51996;DHT22;38010;53.264;6.592;2023-03-31T08:28:37;14.80;99.90
51996;DHT22;38010;53.264;6.592;2023-03-31T08:31:05;14.80;99.90
51996;DHT22;38010;53.264;6.592;2023-03-31T08:33:31;14.90;99.90
51996;DHT22;38010;53.264;6.592;2023-03-31T08:36:01;14.80;99.90
51996;DHT22;38010;53.264;6.592;2023-03-31T08:38:28;14.90;99.90
51996;DHT22;38010;53.264;6.592;2023-03-31T08:41:01;14.90;99.90
51996;DHT22;38010;53.264;6.592;2023-03-31T08:43:37;14.90;99.90
51996;DHT22;38010;53.264;6.592;2023-03-31T08:46:09;14.90;99.90
51996;DHT22;38010;53.264;6.592;2023-03-31T08:48:56;14.90;99.90
51996;DHT22;38010;53.264;6.592;2023-03-31T08:51:28;14.80;99.90
51996;DHT22;38010;53.264;6.592;2023-03-31T08:53:59;14.90;99.90
51996;DHT22;38010;53.264;6.592;2023-03-31T08:56:29;14.80;99.90
51996;DHT22;38010;53.264;6.592;2023-03-31T08:58:58;14.90;99.90
51996;DHT22;38010;53.264;6.592;2023-03-31T09:10:02;14.80;99.90
51996;DHT22;38010;53.264;6.592;2023-03-31T09:15:26;14.80;99.90
51996;DHT22;38010;53.264;6.592;2023-03-31T09:17:54;14.80;99.90
51996;DHT22;38010;53.264;6.592;2023-03-31T09:20:30;14.80;99.90
51996;DHT22;38010;53.264;6.592;2023-03-31T09:25:45;14.90;99.90
51996;DHT22;38010;53.264;6.592;2023-03-31T09:28:36;14.90;99.90
51996;DHT22;38010;53.264;6.592;2023-03-31T09:31:21;14.80;99.90
51996;DHT22;38010;53.264;6.592;2023-03-31T09:33:50;14.80;99.90
51996;DHT22;38010;53.264;6.592;2023-03-31T09:36:19;14.80;99.90
51996;DHT22;38010;53.264;6.592;2023-03-31T09:38:47;14.90;99.90
51996;DHT22;38010;53.264;6.592;2023-03-31T09:41:15;14.80;99.90
51996;DHT22;38010;53.264;6.592;2023-03-31T09:43:41;14.80;99.90
51996;DHT22;38010;53.264;6.592;2023-03-31T09:46:28;14.90;99.90
51996;DHT22;38010;53.264;6.592;2023-03-31T09:49:13;14.80;99.90
51996;DHT22;38010;53.264;6.592;2023-03-31T09:51:44;14.80;99.90
51996;DHT22;38010;53.264;6.592;2023-03-31T09:56:50;14.90;99.90
51996;DHT22;38010;53.264;6.592;2023-03-31T09:59:30;14.90;99.90
51996;DHT22;38010;53.264;6.592;2023-03-31T10:01:58;14.90;99.90
51996;DHT22;38010;53.264;6.592;2023-03-31T10:04:32;14.90;99.90
51996;DHT22;38010;53.264;6.592;2023-03-31T10:07:00;14.90;99.90
51996;DHT22;38010;53.264;6.592;2023-03-31T10:09:31;14.90;99.90
51996;DHT22;38010;53.264;6.592;2023-03-31T10:12:14;14.90;99.90
51996;DHT22;38010;53.264;6.592;2023-03-31T10:14:44;14.90;99.90
51996;DHT22;38010;53.264;6.592;2023-03-31T10:17:19;14.90;99.90
51996;DHT22;38010;53.264;6.592;2023-03-31T10:24:46;15.00;99.90
51996;DHT22;38010;53.264;6.592;2023-03-31T10:27:25;15.00;99.90
51996;DHT22;38010;53.264;6.592;2023-03-31T10:29:56;15.00;99.90
51996;DHT22;38010;53.264;6.592;2023-03-31T10:32:31;15.00;99.90
51996;DHT22;38010;53.264;6.592;2023-03-31T10:35:04;15.00;99.90
51996;DHT22;38010;53.264;6.592;2023-03-31T10:37:31;15.00;99.90
51996;DHT22;38010;53.264;6.592;2023-03-31T10:42:37;15.00;99.90
51996;DHT22;38010;53.264;6.592;2023-03-31T10:45:23;15.00;99.90
51996;DHT22;38010;53.264;6.592;2023-03-31T10:47:52;15.10;99.90
51996;DHT22;38010;53.264;6.592;2023-03-31T10:50:18;15.00;99.90
51996;DHT22;38010;53.264;6.592;2023-03-31T10:52:50;15.00;99.90
51996;DHT22;38010;53.264;6.592;2023-03-31T10:55:24;15.00;99.90
51996;DHT22;38010;53.264;6.592;2023-03-31T10:58:31;15.00;99.90
51996;DHT22;38010;53.264;6.592;2023-03-31T11:01:17;15.00;99.90
51996;DHT22;38010;53.264;6.592;2023-03-31T11:17:59;15.00;99.90
51996;DHT22;38010;53.264;6.592;2023-03-31T11:23:24;15.10;99.90
51996;DHT22;38010;53.264;6.592;2023-03-31T11:31:39;15.20;99.90
51996;DHT22;38010;53.264;6.592;2023-03-31T11:37:01;15.30;99.90
51996;DHT22;38010;53.264;6.592;2023-03-31T11:42:31;15.50;99.90
51996;DHT22;38010;53.264;6.592;2023-03-31T11:45:04;15.60;99.90
51996;DHT22;38010;53.264;6.592;2023-03-31T11:47:34;15.70;99.90
51996;DHT22;38010;53.264;6.592;2023-03-31T11:50:08;15.80;99.90
51996;DHT22;38010;53.264;6.592;2023-03-31T11:52:39;15.90;99.90
51996;DHT22;38010;53.264;6.592;2023-03-31T11:55:20;16.10;99.90
51996;DHT22;38010;53.264;6.592;2023-03-31T12:00:29;16.30;99.90
51996;DHT22;38010;53.264;6.592;2023-03-31T12:05:39;16.40;99.90
51996;DHT22;38010;53.264;6.592;2023-03-31T12:11:06;16.60;99.90
51996;DHT22;38010;53.264;6.592;2023-03-31T12:16:16;16.70;99.90
51996;DHT22;38010;53.264;6.592;2023-03-31T12:18:56;16.70;99.90
51996;DHT22;38010;53.264;6.592;2023-03-31T12:21:24;16.70;99.90
51996;DHT22;38010;53.264;6.592;2023-03-31T12:23:51;16.70;99.90
51996;DHT22;38010;53.264;6.592;2023-03-31T12:28:57;16.70;99.90
51996;DHT22;38010;53.264;6.592;2023-03-31T12:31:26;16.70;99.90
51996;DHT22;38010;53.264;6.592;2023-03-31T12:33:57;16.70;99.90
51996;DHT22;38010;53.264;6.592;2023-03-31T12:39:38;16.60;99.90
51996;DHT22;38010;53.264;6.592;2023-03-31T12:45:27;16.50;99.90
51996;DHT22;38010;53.264;6.592;2023-03-31T12:53:40;16.40;99.90
51996;DHT22;38010;53.264;6.592;2023-03-31T12:56:08;16.40;99.90
51996;DHT22;38010;53.264;6.592;2023-03-31T12:58:38;16.40;99.90
51996;DHT22;38010;53.264;6.592;2023-03-31T13:01:23;16.30;99.90
51996;DHT22;38010;53.264;6.592;2023-03-31T13:09:02;16.40;99.90
51996;DHT22;38010;53.264;6.592;2023-03-31T13:11:35;16.40;99.90
51996;DHT22;38010;53.264;6.592;2023-03-31T13:14:29;16.40;99.90
51996;DHT22;38010;53.264;6.592;2023-03-31T13:17:19;16.40;99.90
51996;DHT22;38010;53.264;6.592;2023-03-31T13:19:46;16.30;99.90
51996;DHT22;38010;53.264;6.592;2023-03-31T13:22:29;16.30;99.90
51996;DHT22;38010;53.264;6.592;2023-03-31T13:33:10;16.30;99.90
51996;DHT22;38010;53.264;6.592;2023-03-31T13:35:38;16.30;99.90
51996;DHT22;38010;53.264;6.592;2023-03-31T13:41:08;16.30;99.90
51996;DHT22;38010;53.264;6.592;2023-03-31T13:49:39;16.30;99.90
51996;DHT22;38010;53.264;6.592;2023-03-31T13:52:11;16.30;99.90
51996;DHT22;38010;53.264;6.592;2023-03-31T14:03:18;16.10;99.90
51996;DHT22;38010;53.264;6.592;2023-03-31T14:06:02;16.10;99.90
51996;DHT22;38010;53.264;6.592;2023-03-31T14:08:47;16.10;99.90
51996;DHT22;38010;53.264;6.592;2023-03-31T14:11:27;16.10;99.90
51996;DHT22;38010;53.264;6.592;2023-03-31T14:14:12;16.00;99.90
51996;DHT22;38010;53.264;6.592;2023-03-31T14:16:44;16.00;99.90
51996;DHT22;38010;53.264;6.592;2023-03-31T14:35:34;16.30;99.90
51996;DHT22;38010;53.264;6.592;2023-03-31T14:38:13;16.30;99.90
51996;DHT22;38010;53.264;6.592;2023-03-31T14:40:49;16.30;99.90
51996;DHT22;38010;53.264;6.592;2023-03-31T14:43:48;16.30;99.90
51996;DHT22;38010;53.264;6.592;2023-03-31T14:46:19;16.20;99.90
51996;DHT22;38010;53.264;6.592;2023-03-31T14:48:47;16.30;99.90
51996;DHT22;38010;53.264;6.592;2023-03-31T14:51:14;16.30;99.90
51996;DHT22;38010;53.264;6.592;2023-03-31T14:53:41;16.40;99.90
51996;DHT22;38010;53.264;6.592;2023-03-31T14:56:15;16.40;99.90
51996;DHT22;38010;53.264;6.592;2023-03-31T14:58:48;16.50;99.90
51996;DHT22;38010;53.264;6.592;2023-03-31T15:01:24;16.50;99.90
51996;DHT22;38010;53.264;6.592;2023-03-31T15:03:53;16.60;99.90
51996;DHT22;38010;53.264;6.592;2023-03-31T15:06:19;16.70;99.90
51996;DHT22;38010;53.264;6.592;2023-03-31T15:08:48;16.70;99.90
51996;DHT22;38010;53.264;6.592;2023-03-31T15:11:16;16.70;99.90
51996;DHT22;38010;53.264;6.592;2023-03-31T15:13:45;16.70;99.90
51996;DHT22;38010;53.264;6.592;2023-03-31T15:16:38;16.70;99.90
51996;DHT22;38010;53.264;6.592;2023-03-31T15:19:22;16.70;99.90
51996;DHT22;38010;53.264;6.592;2023-03-31T15:22:00;16.60;99.90
51996;DHT22;38010;53.264;6.592;2023-03-31T15:24:27;16.60;99.90
51996;DHT22;38010;53.264;6.592;2023-03-31T15:27:15;16.60;99.90
51996;DHT22;38010;53.264;6.592;2023-03-31T15:29:53;16.60;99.90
51996;DHT22;38010;53.264;6.592;2023-03-31T15:32:39;16.50;99.90
51996;DHT22;38010;53.264;6.592;2023-03-31T15:35:06;16.50;99.90
51996;DHT22;38010;53.264;6.592;2023-03-31T15:37:38;16.50;99.90
51996;DHT22;38010;53.264;6.592;2023-03-31T15:40:09;16.40;99.90
51996;DHT22;38010;53.264;6.592;2023-03-31T15:42:40;16.40;99.90
51996;DHT22;38010;53.264;6.592;2023-03-31T15:47:55;16.30;99.90
51996;DHT22;38010;53.264;6.592;2023-03-31T15:50:22;16.30;99.90
51996;DHT22;38010;53.264;6.592;2023-03-31T15:52:51;16.30;99.90
51996;DHT22;38010;53.264;6.592;2023-03-31T15:55:39;16.20;99.90
51996;DHT22;38010;53.264;6.592;2023-03-31T15:58:05;16.30;99.90
51996;DHT22;38010;53.264;6.592;2023-03-31T16:03:18;16.20;99.90
51996;DHT22;38010;53.264;6.592;2023-03-31T16:06:01;16.20;99.90
51996;DHT22;38010;53.264;6.592;2023-03-31T16:14:22;16.10;99.90
51996;DHT22;38010;53.264;6.592;2023-03-31T16:16:54;16.10;99.90
51996;DHT22;38010;53.264;6.592;2023-03-31T16:19:23;16.00;99.90
51996;DHT22;38010;53.264;6.592;2023-03-31T16:21:53;16.00;99.90
51996;DHT22;38010;53.264;6.592;2023-03-31T16:24:26;16.00;99.90
51996;DHT22;38010;53.264;6.592;2023-03-31T16:26:58;16.00;99.90
51996;DHT22;38010;53.264;6.592;2023-03-31T16:29:25;16.00;99.90
51996;DHT22;38010;53.264;6.592;2023-03-31T16:32:09;15.90;99.90
51996;DHT22;38010;53.264;6.592;2023-03-31T16:34:54;15.90;99.90
51996;DHT22;38010;53.264;6.592;2023-03-31T16:37:21;16.00;99.90
51996;DHT22;38010;53.264;6.592;2023-03-31T16:39:47;15.90;99.90
51996;DHT22;38010;53.264;6.592;2023-03-31T16:42:13;15.90;99.90
51996;DHT22;38010;53.264;6.592;2023-03-31T16:44:39;15.90;99.90
51996;DHT22;38010;53.264;6.592;2023-03-31T16:47:05;15.90;99.90
51996;DHT22;38010;53.264;6.592;2023-03-31T16:49:30;15.90;99.90
51996;DHT22;38010;53.264;6.592;2023-03-31T16:51:56;15.90;99.90
51996;DHT22;38010;53.264;6.592;2023-03-31T16:54:22;15.90;99.90
51996;DHT22;38010;53.264;6.592;2023-03-31T16:56:48;15.90;99.90
51996;DHT22;38010;53.264;6.592;2023-03-31T16:59:14;15.90;99.90
51996;DHT22;38010;53.264;6.592;2023-03-31T17:01:40;15.90;99.90
51996;DHT22;38010;53.264;6.592;2023-03-31T17:04:06;15.90;99.90
51996;DHT22;38010;53.264;6.592;2023-03-31T17:06:32;15.90;99.90
51996;DHT22;38010;53.264;6.592;2023-03-31T17:08:58;15.90;99.90
51996;DHT22;38010;53.264;6.592;2023-03-31T17:11:23;15.90;99.90
51996;DHT22;38010;53.264;6.592;2023-03-31T17:13:51;15.90;99.90
51996;DHT22;38010;53.264;6.592;2023-03-31T17:16:19;15.90;99.90
51996;DHT22;38010;53.264;6.592;2023-03-31T17:18:45;15.90;99.90
51996;DHT22;38010;53.264;6.592;2023-03-31T17:21:13;15.80;99.90
51996;DHT22;38010;53.264;6.592;2023-03-31T17:23:40;15.80;99.90
51996;DHT22;38010;53.264;6.592;2023-03-31T17:26:08;15.80;99.90
51996;DHT22;38010;53.264;6.592;2023-03-31T17:28:40;15.80;99.90
51996;DHT22;38010;53.264;6.592;2023-03-31T17:31:20;15.80;99.90
51996;DHT22;38010;53.264;6.592;2023-03-31T17:33:46;15.80;99.90
51996;DHT22;38010;53.264;6.592;2023-03-31T17:36:12;15.80;99.90
51996;DHT22;38010;53.264;6.592;2023-03-31T17:38:38;15.80;99.90
51996;DHT22;38010;53.264;6.592;2023-03-31T17:41:06;15.80;99.90
51996;DHT22;38010;53.264;6.592;2023-03-31T17:43:32;15.80;99.90
51996;DHT22;38010;53.264;6.592;2023-03-31T17:46:06;15.80;99.90
51996;DHT22;38010;53.264;6.592;2023-03-31T17:48:33;15.80;99.90
51996;DHT22;38010;53.264;6.592;2023-03-31T17:51:10;15.80;99.90
51996;DHT22;38010;53.264;6.592;2023-03-31T17:53:38;15.80;99.90
51996;DHT22;38010;53.264;6.592;2023-03-31T17:56:04;15.80;99.90
51996;DHT22;38010;53.264;6.592;2023-03-31T17:58:31;15.80;99.90
51996;DHT22;38010;53.264;6.592;2023-03-31T18:00:57;15.80;99.90
51996;DHT22;38010;53.264;6.592;2023-03-31T18:03:24;15.80;99.90
51996;DHT22;38010;53.264;6.592;2023-03-31T18:05:52;15.80;99.90
51996;DHT22;38010;53.264;6.592;2023-03-31T18:08:17;15.80;99.90
51996;DHT22;38010;53.264;6.592;2023-03-31T18:10:43;15.80;99.90
51996;DHT22;38010;53.264;6.592;2023-03-31T18:13:10;15.80;99.90
51996;DHT22;38010;53.264;6.592;2023-03-31T18:15:36;15.80;99.90
51996;DHT22;38010;53.264;6.592;2023-03-31T18:18:03;15.80;99.90
51996;DHT22;38010;53.264;6.592;2023-03-31T18:20:28;15.80;99.90
51996;DHT22;38010;53.264;6.592;2023-03-31T18:22:54;15.80;99.90
51996;DHT22;38010;53.264;6.592;2023-03-31T18:25:20;15.90;99.90
51996;DHT22;38010;53.264;6.592;2023-03-31T18:27:46;15.90;99.90
51996;DHT22;38010;53.264;6.592;2023-03-31T18:30:13;15.80;99.90
51996;DHT22;38010;53.264;6.592;2023-03-31T18:32:39;15.90;99.90
51996;DHT22;38010;53.264;6.592;2023-03-31T18:35:05;15.90;99.90
51996;DHT22;38010;53.264;6.592;2023-03-31T18:37:31;15.90;99.90
51996;DHT22;38010;53.264;6.592;2023-03-31T18:39:58;15.90;99.90
51996;DHT22;38010;53.264;6.592;2023-03-31T18:42:24;15.90;99.90
51996;DHT22;38010;53.264;6.592;2023-03-31T18:44:51;15.90;99.90
51996;DHT22;38010;53.264;6.592;2023-03-31T18:47:17;15.90;99.90
51996;DHT22;38010;53.264;6.592;2023-03-31T18:49:44;15.90;99.90
51996;DHT22;38010;53.264;6.592;2023-03-31T18:52:11;15.90;99.90